Sherwood, North Dakota
Current Conditions -  °F | °C
As of 7:58 AM on Saturday 25 Oct 2014 (Local Time) from KMIB Reporting Station
Clear Clear  
Wind Chill: 22°   Ceiling: Unl
Heat Index: 31°   Visibility: 10mi
Dew Point: 28°   Wind: 10mph
Humidity: 90%   Direction: 270°W
Pressure: 30.09"   Gusts: NA
Location:  48.96°N, 101.63°W
Report Text: KMIB 251258Z AUTO 27009KT 10SM CLR M01/M02 A3009 RMK AO2 SLP208 T10071022 $
Loading
Personal Weather Stations






























Interactive Weather Map
Tropical Storm Tracking
New forecast layout! Learn more

10-Day Weather Forecast

Advertisements
Track Severe Weather on mobile